Time;durP1;ratioP1;P1;durP2;ratioP2;P2;SDS_P1;SDS_P2;PMS_P1;PMS_P2;Temp;Humidity;BMP_temperature;BMP_pressure;BME280_temperature;BME280_humidity;BME280_pressure;Samples;Min_cycle;Max_cycle;Signal;HPM_P1;HPM_P2
2021/12/18 00:00:38;;;;;;;5.57;3.33;;;12.00;78.60;;;;;;5037571;28;20055;-85
2021/12/18 00:03:05;;;;;;;4.85;3.10;;;12.00;78.60;;;;;;5036944;28;20029;-85
2021/12/18 00:05:31;;;;;;;4.60;3.20;;;12.00;78.60;;;;;;5020885;28;20029;-85
2021/12/18 00:07:57;;;;;;;4.63;2.88;;;12.00;78.60;;;;;;5058484;28;20033;-86
2021/12/18 00:10:23;;;;;;;4.35;2.95;;;12.00;78.50;;;;;;5041378;28;20044;-85
2021/12/18 00:12:51;;;;;;;4.00;2.63;;;12.00;78.50;;;;;;5040847;28;20059;-86
2021/12/18 00:15:19;;;;;;;3.78;2.63;;;12.00;78.60;;;;;;5040245;28;20086;-86
2021/12/18 00:17:45;;;;;;;5.10;3.28;;;12.00;78.60;;;;;;5057628;28;20513;-85
2021/12/18 00:20:13;;;;;;;4.28;2.90;;;12.00;78.60;;;;;;5057410;28;20079;-86
2021/12/18 00:22:39;;;;;;;4.28;2.78;;;12.00;78.60;;;;;;5057385;28;20059;-86
2021/12/18 00:25:05;;;;;;;4.03;2.60;;;12.00;78.60;;;;;;5041234;28;20115;-85
2021/12/18 00:27:31;;;;;;;4.75;3.00;;;11.90;78.50;;;;;;5040430;28;20021;-86
2021/12/18 00:29:57;;;;;;;4.50;2.70;;;12.00;78.60;;;;;;5058184;28;20048;-85
2021/12/18 00:32:23;;;;;;;4.60;2.88;;;12.00;78.60;;;;;;5023993;28;20133;-86
2021/12/18 00:34:49;;;;;;;4.15;2.75;;;12.00;78.60;;;;;;5040049;28;20075;-86
2021/12/18 00:37:14;;;;;;;4.45;2.80;;;12.00;78.60;;;;;;5024648;28;20521;-86
2021/12/18 00:39:49;;;;;;;4.57;2.97;;;11.90;78.50;;;;;;5040137;28;20029;-85
2021/12/18 00:42:38;;;;;;;;;;;11.90;78.50;;;;;;5042857;28;20029;-85
2021/12/18 00:45:10;;;;;;;3.70;2.63;;;12.00;78.50;;;;;;5041055;28;20356;-85
2021/12/18 00:47:36;;;;;;;3.83;2.63;;;11.90;78.40;;;;;;5040212;28;20082;-86
2021/12/18 00:50:04;;;;;;;4.25;2.83;;;11.90;78.50;;;;;;5039756;28;20036;-85
2021/12/18 00:52:30;;;;;;;4.10;2.70;;;11.90;78.70;;;;;;5040001;28;20401;-86
2021/12/18 00:54:56;;;;;;;4.57;2.92;;;11.90;78.60;;;;;;5056723;28;20067;-85
2021/12/18 00:57:22;;;;;;;4.22;2.55;;;11.90;78.60;;;;;;5007140;28;20563;-85
2021/12/18 00:59:51;;;;;;;4.25;2.72;;;11.90;78.70;;;;;;5058198;28;20033;-85
2021/12/18 01:02:17;;;;;;;4.43;2.83;;;11.90;78.70;;;;;;5040087;28;20462;-85
2021/12/18 01:04:42;;;;;;;4.22;2.58;;;11.90;78.60;;;;;;5057576;28;20054;-85
2021/12/18 01:07:08;;;;;;;4.63;2.63;;;11.90;79.20;;;;;;5039687;28;20375;-85
2021/12/18 01:09:54;;;;;;;4.82;2.90;;;11.90;78.60;;;;;;5039789;28;20032;-85
2021/12/18 01:12:25;;;;;;;4.05;2.65;;;11.90;78.60;;;;;;5056880;28;20048;-85
2021/12/18 01:15:42;;;;;;;3.75;2.53;;;11.90;78.60;;;;;;5024192;28;20144;-85
2021/12/18 01:23:10;;;;;;;4.22;2.78;;;11.90;78.60;;;;;;5056072;28;20044;-85
2021/12/18 01:25:36;;;;;;;3.85;2.45;;;11.90;78.60;;;;;;5039782;28;20017;-85
2021/12/18 01:28:03;;;;;;;3.80;2.53;;;11.90;78.60;;;;;;5039102;28;20424;-86
2021/12/18 01:30:29;;;;;;;3.67;2.45;;;11.90;78.70;;;;;;5039407;28;20514;-85
2021/12/18 01:32:55;;;;;;;4.25;2.60;;;11.90;78.70;;;;;;5039308;28;20137;-85
2021/12/18 01:35:21;;;;;;;4.00;2.60;;;11.90;79.30;;;;;;5039117;28;20048;-86
2021/12/18 01:37:49;;;;;;;4.18;2.83;;;11.90;78.70;;;;;;5039484;28;20154;-85
2021/12/18 01:40:16;;;;;;;3.67;2.65;;;11.90;78.70;;;;;;5024087;28;20021;-85
2021/12/18 01:45:42;;;;;;;5.15;3.00;;;11.90;78.70;;;;;;5055769;28;20070;-85
2021/12/18 01:53:31;;;;;;;3.63;2.42;;;11.90;78.60;;;;;;5028454;28;20099;-85
2021/12/18 01:55:57;;;;;;;3.78;2.45;;;11.90;78.60;;;;;;5023469;28;20454;-85
2021/12/18 01:58:24;;;;;;;3.70;2.47;;;11.80;78.60;;;;;;5039035;28;20455;-86
2021/12/18 02:00:56;;;;;;;4.00;2.63;;;11.80;78.60;;;;;;5039662;28;20420;-85
2021/12/18 02:03:22;;;;;;;4.32;2.72;;;11.80;78.70;;;;;;5039040;28;20052;-85
2021/12/18 02:05:49;;;;;;;3.95;2.45;;;11.80;78.70;;;;;;5038266;28;20029;-86
2021/12/18 02:08:19;;;;;;;4.32;2.78;;;11.90;78.70;;;;;;5022515;28;20033;-85
2021/12/18 02:10:50;;;;;;;4.32;2.60;;;11.90;78.70;;;;;;5056365;28;20056;-85
2021/12/18 02:22:02;;;;;;;4.07;2.55;;;11.90;78.60;;;;;;4967461;28;20066;-85
2021/12/18 02:24:30;;;;;;;3.90;2.50;;;11.80;78.60;;;;;;4962532;28;20031;-86
2021/12/18 02:26:58;;;;;;;4.07;2.40;;;11.80;78.60;;;;;;5015603;28;20123;-86
2021/12/18 02:29:24;;;;;;;3.38;2.20;;;11.90;78.70;;;;;;5038564;28;20070;-86
2021/12/18 02:31:50;;;;;;;3.80;2.55;;;11.80;78.70;;;;;;5038515;28;20465;-86
2021/12/18 02:34:24;;;;;;;3.78;2.47;;;11.80;78.70;;;;;;5054545;28;20033;-86
2021/12/18 02:37:02;;;;;;;;;;;;;;;;;;;;;
2021/12/18 02:42:22;;;;;;;4.47;2.65;;;11.90;78.70;;;;;;5054484;28;20049;-87
2021/12/18 02:44:54;;;;;;;3.92;2.45;;;11.80;78.70;;;;;;5024252;28;20025;-87
2021/12/18 02:47:24;;;;;;;3.72;2.60;;;11.80;78.60;;;;;;5038115;28;20021;-85
2021/12/18 02:50:02;;;;;;;4.10;2.60;;;11.80;78.60;;;;;;5005899;28;20127;-88
2021/12/18 02:52:33;;;;;;;4.00;2.58;;;11.80;78.60;;;;;;5038331;28;20584;-84
2021/12/18 02:55:09;;;;;;;3.67;2.40;;;11.80;78.70;;;;;;5037956;28;20049;-86
2021/12/18 02:57:37;;;;;;;3.92;2.47;;;11.80;78.70;;;;;;5055022;28;20108;-87
2021/12/18 03:00:09;;;;;;;3.28;2.20;;;11.80;78.60;;;;;;5037522;28;20059;-86
2021/12/18 03:02:42;;;;;;;4.35;2.75;;;11.80;78.70;;;;;;5054317;28;20025;-86
2021/12/18 03:05:20;;;;;;;;;;;;;;;;;;;;;
2021/12/18 03:08:19;;;;;;;3.47;2.70;;;11.80;78.60;;;;;;5055293;28;20035;-85
2021/12/18 03:24:44;;;;;;;4.05;2.55;;;11.80;78.70;;;;;;5053701;28;20066;-86
2021/12/18 03:27:22;;;;;;;;;;;;;;;;;;;;;
2021/12/18 03:30:03;;;;;;;3.90;2.50;;;11.80;78.70;;;;;;5053999;28;20084;-86
2021/12/18 03:32:35;;;;;;;3.35;2.15;;;11.80;78.60;;;;;;5039173;28;20048;-86
2021/12/18 03:35:18;;;;;;;3.15;2.15;;;11.80;78.70;;;;;;5040556;28;20560;-85
2021/12/18 03:37:55;;;;;;;3.50;2.30;;;11.80;78.60;;;;;;5056066;28;20060;-86
2021/12/18 03:40:33;;;;;;;3.78;2.38;;;11.80;78.70;;;;;;5037251;28;20033;-85
2021/12/18 03:42:59;;;;;;;4.18;2.63;;;11.80;78.70;;;;;;5037198;28;20029;-86
2021/12/18 03:45:41;;;;;;;4.90;2.60;;;11.80;78.60;;;;;;5054347;28;20029;-88
2021/12/18 03:48:20;;;;;;;3.33;2.28;;;11.80;78.60;;;;;;5023282;28;20076;-85
2021/12/18 03:50:49;;;;;;;4.07;2.60;;;11.80;78.70;;;;;;5037441;28;20037;-85
2021/12/18 03:53:23;;;;;;;4.05;2.50;;;11.80;78.60;;;;;;5020873;28;20057;-85
2021/12/18 03:56:03;;;;;;;3.95;2.63;;;11.80;78.60;;;;;;5054047;28;20031;-86
2021/12/18 03:58:32;;;;;;;4.03;2.65;;;11.80;78.70;;;;;;5053890;28;20167;-86
2021/12/18 04:00:58;;;;;;;4.40;2.50;;;11.80;78.60;;;;;;5036534;28;20039;-86
2021/12/18 04:06:39;;;;;;;3.55;2.38;;;11.80;78.60;;;;;;5053241;28;20037;-86
2021/12/18 04:09:17;;;;;;;4.88;2.83;;;11.80;78.60;;;;;;5038295;28;20017;-86
2021/12/18 04:11:49;;;;;;;3.45;2.50;;;11.80;78.60;;;;;;5035915;28;20507;-85
2021/12/18 04:14:27;;;;;;;;;;;;;;;;;;;;;
2021/12/18 04:16:59;;;;;;;4.57;2.83;;;11.80;78.70;;;;;;5054260;28;20036;-85
2021/12/18 04:19:46;;;;;;;3.83;2.63;;;11.80;78.70;;;;;;5036989;28;20469;-86
2021/12/18 04:22:32;;;;;;;3.10;2.13;;;11.80;78.70;;;;;;5037418;28;20033;-86
2021/12/18 04:25:09;;;;;;;3.78;2.55;;;11.80;78.80;;;;;;5037124;28;20428;-86
2021/12/18 04:27:42;;;;;;;4.20;2.78;;;11.80;78.70;;;;;;5038307;28;20095;-86
2021/12/18 04:30:11;;;;;;;3.63;2.40;;;11.80;78.70;;;;;;5036599;28;20021;-85
2021/12/18 04:32:47;;;;;;;3.63;2.35;;;11.80;78.70;;;;;;5006186;28;20440;-87
2021/12/18 04:35:15;;;;;;;3.65;2.40;;;11.70;78.70;;;;;;5004880;28;20036;-85
2021/12/18 04:37:44;;;;;;;3.67;2.33;;;11.70;78.60;;;;;;5053019;28;20025;-86
2021/12/18 04:40:15;;;;;;;4.40;2.65;;;11.70;78.60;;;;;;5020219;28;20068;-86
2021/12/18 04:42:46;;;;;;;4.03;2.50;;;11.80;78.70;;;;;;5037075;28;20043;-84
2021/12/18 04:45:15;;;;;;;3.67;2.25;;;11.80;78.70;;;;;;5037684;28;20036;-86
2021/12/18 04:47:45;;;;;;;4.28;2.53;;;11.80;78.70;;;;;;5036898;28;20462;-86
2021/12/18 04:50:23;;;;;;;4.35;2.50;;;11.70;78.70;;;;;;5021253;28;20029;-85
2021/12/18 04:52:54;;;;;;;3.50;2.30;;;11.80;78.70;;;;;;5037554;28;20037;-86
2021/12/18 04:55:33;;;;;;;3.58;2.45;;;11.70;78.60;;;;;;5042168;28;20406;-85
2021/12/18 04:58:04;;;;;;;4.07;2.50;;;11.70;78.60;;;;;;5041040;28;20029;-86
2021/12/18 05:00:38;;;;;;;3.70;2.30;;;11.70;78.70;;;;;;5059350;28;20036;-85
2021/12/18 05:03:11;;;;;;;4.32;2.33;;;11.70;78.60;;;;;;5056633;28;20468;-86
2021/12/18 05:05:46;;;;;;;4.40;2.58;;;11.70;78.60;;;;;;5024848;28;20477;-86
2021/12/18 05:08:19;;;;;;;3.90;2.50;;;11.70;78.60;;;;;;5040294;28;20047;-85
2021/12/18 05:10:54;;;;;;;4.22;2.45;;;11.70;78.60;;;;;;5056381;28;20407;-86
2021/12/18 05:13:26;;;;;;;3.78;2.40;;;11.70;79.30;;;;;;5040458;28;20045;-85
2021/12/18 05:15:57;;;;;;;4.32;2.53;;;11.80;78.70;;;;;;5024909;28;20163;-86
2021/12/18 05:18:36;;;;;;;4.18;2.38;;;11.70;78.60;;;;;;5055928;28;20099;-85
2021/12/18 05:21:04;;;;;;;3.28;2.20;;;11.70;78.60;;;;;;5040071;28;20028;-85
2021/12/18 05:23:38;;;;;;;3.90;2.20;;;11.70;78.60;;;;;;5056254;28;20128;-86
2021/12/18 05:26:06;;;;;;;3.50;2.25;;;11.70;78.60;;;;;;5040047;28;20450;-86
2021/12/18 05:28:42;;;;;;;3.97;2.55;;;11.70;78.60;;;;;;5040951;28;20095;-86
2021/12/18 05:31:17;;;;;;;4.13;2.40;;;11.70;78.60;;;;;;5056831;28;20033;-86
2021/12/18 05:33:52;;;;;;;3.60;2.20;;;11.70;78.60;;;;;;5056271;28;20442;-85
2021/12/18 05:36:31;;;;;;;2.92;2.00;;;11.70;78.70;;;;;;5040061;28;20032;-86
2021/12/18 05:39:01;;;;;;;3.50;2.33;;;11.70;78.60;;;;;;5039569;28;20033;-85
2021/12/18 05:41:43;;;;;;;4.10;2.33;;;11.70;78.70;;;;;;5056048;28;20055;-86
2021/12/18 05:44:22;;;;;;;3.70;2.30;;;11.70;78.70;;;;;;5040127;28;20021;-86
2021/12/18 05:46:55;;;;;;;3.17;2.20;;;11.70;78.60;;;;;;5041405;28;20036;-86
2021/12/18 05:49:26;;;;;;;3.42;2.00;;;11.70;78.70;;;;;;5039909;28;20040;-86
2021/12/18 05:51:55;;;;;;;4.13;2.47;;;11.70;78.70;;;;;;5039473;28;20069;-85
2021/12/18 05:54:21;;;;;;;3.47;2.40;;;11.70;78.60;;;;;;5056239;28;20463;-87
2021/12/18 05:57:05;;;;;;;3.75;2.42;;;11.70;78.60;;;;;;5019154;28;20037;-87
2021/12/18 06:00:11;;;;;;;3.92;2.47;;;11.70;78.70;;;;;;5019793;28;20033;-86
2021/12/18 06:02:44;;;;;;;4.32;2.50;;;11.60;78.60;;;;;;5024848;28;20048;-86
2021/12/18 06:05:13;;;;;;;2.85;2.00;;;11.70;78.60;;;;;;5038786;28;20044;-86
2021/12/18 06:07:58;;;;;;;4.25;2.42;;;11.70;78.70;;;;;;5038550;28;20025;-86
2021/12/18 06:10:31;;;;;;;3.65;2.20;;;11.60;78.60;;;;;;5055475;28;20072;-87
2021/12/18 06:13:02;;;;;;;3.35;2.20;;;11.60;78.60;;;;;;5038294;28;20485;-86
2021/12/18 06:15:43;;;;;;;;;;;;;;;;;;;;;
2021/12/18 06:18:30;;;;;;;4.05;2.40;;;11.60;78.70;;;;;;5039200;28;20119;-86
2021/12/18 06:20:56;;;;;;;3.38;2.10;;;11.60;78.80;;;;;;5038909;28;20028;-87
2021/12/18 06:23:29;;;;;;;3.70;2.10;;;11.60;78.60;;;;;;5038889;28;20446;-86
2021/12/18 06:25:59;;;;;;;3.75;2.35;;;11.60;78.70;;;;;;5054838;28;20087;-87
2021/12/18 06:28:33;;;;;;;4.68;2.50;;;11.60;78.70;;;;;;5039232;28;20086;-88
2021/12/18 06:31:04;;;;;;;3.47;2.10;;;11.60;78.70;;;;;;5039171;28;20049;-85
2021/12/18 06:33:41;;;;;;;3.47;2.08;;;11.60;78.60;;;;;;5038458;28;20048;-86
2021/12/18 06:36:10;;;;;;;3.70;2.30;;;11.60;78.70;;;;;;5054797;28;20029;-86
2021/12/18 06:38:50;;;;;;;3.72;2.33;;;11.60;78.60;;;;;;5038323;28;20025;-85
2021/12/18 06:41:16;;;;;;;3.78;2.20;;;11.60;78.70;;;;;;5038444;28;20036;-85
2021/12/18 06:43:42;;;;;;;3.33;2.20;;;11.60;78.60;;;;;;5038794;28;20088;-86
2021/12/18 06:46:16;;;;;;;2.70;1.80;;;11.60;78.70;;;;;;5054460;28;20488;-87
2021/12/18 06:49:14;;;;;;;3.35;2.20;;;11.60;78.70;;;;;;5038569;28;20025;-87
2021/12/18 06:51:54;;;;;;;2.65;1.80;;;11.60;78.70;;;;;;5041313;28;20137;-86
2021/12/18 06:54:28;;;;;;;3.28;1.98;;;11.60;78.60;;;;;;5054491;28;20025;-87
2021/12/18 06:57:22;;;;;;;2.70;1.70;;;11.60;78.70;;;;;;5025422;28;20036;-87
2021/12/18 07:00:16;;;;;;;2.83;1.92;;;11.60;78.70;;;;;;5024733;28;20032;-87
2021/12/18 07:02:46;;;;;;;2.92;1.90;;;11.60;78.60;;;;;;5053891;28;20067;-86
2021/12/18 07:05:25;;;;;;;2.28;1.70;;;11.60;78.70;;;;;;5040064;28;20039;-87
2021/12/18 07:07:57;;;;;;;2.60;1.83;;;11.60;78.70;;;;;;5037302;28;20029;-87
2021/12/18 07:10:36;;;;;;;3.65;2.13;;;11.60;78.70;;;;;;5040554;28;20029;-87
2021/12/18 07:13:12;;;;;;;2.38;1.75;;;11.60;78.70;;;;;;5037331;28;20083;-87
2021/12/18 07:15:57;;;;;;;2.65;1.80;;;11.50;78.70;;;;;;5053076;28;20029;-86
2021/12/18 07:18:33;;;;;;;2.50;1.63;;;11.60;78.70;;;;;;5055640;28;20021;-87
2021/12/18 07:24:16;;;;;;;2.40;1.52;;;11.50;78.60;;;;;;5043353;28;20135;-86
2021/12/18 07:27:32;;;;;;;;;;;;;;;;;;;;;
2021/12/18 07:30:28;;;;;;;1.80;1.42;;;11.50;78.80;;;;;;5042154;28;20033;-87
2021/12/18 07:33:47;;;;;;;;;;;;;;;;;;;;;
2021/12/18 07:36:32;;;;;;;;;;;;;;;;;;;;;
2021/12/18 07:39:08;;;;;;;1.77;1.48;;;11.50;78.60;;;;;;5053665;28;20057;-86
2021/12/18 07:42:06;;;;;;;;;;;;;;;;;;;;;
2021/12/18 07:44:42;;;;;;;1.52;1.20;;;11.50;78.80;;;;;;5039173;28;20367;-88
2021/12/18 07:47:28;;;;;;;;;;;;;;;;;;;;;
2021/12/18 07:50:18;;;;;;;;;;;;;;;;;;;;;
2021/12/18 07:53:31;;;;;;;;;;;;;;;;;;;;;
2021/12/18 07:56:26;;;;;;;;;;;;;;;;;;;;;
2021/12/18 08:00:14;;;;;;;1.60;1.30;;;11.40;78.60;;;;;;5055663;28;20029;-90
2021/12/18 08:40:29;;;;;;;0.98;0.93;;;11.20;79.00;;;;;;4734910;30;20036;-91
2021/12/18 08:43:36;;;;;;;1.17;1.08;;;11.10;79.00;;;;;;4792507;29;20048;-89
2021/12/18 08:46:27;;;;;;;1.10;1.00;;;11.10;79.00;;;;;;4905525;29;20103;-90
2021/12/18 08:52:46;;;;;;;1.05;0.95;;;11.20;79.10;;;;;;4929621;28;20048;-88
2021/12/18 08:55:19;;;;;;;1.10;1.00;;;11.20;78.90;;;;;;5002989;28;20196;-86
2021/12/18 08:58:21;;;;;;;1.10;1.00;;;11.20;78.90;;;;;;5040053;28;20480;-89
2021/12/18 09:01:22;;;;;;;;;;;;;;;;;;;;;
2021/12/18 09:12:31;;;;;;;;;;;;;;;;;;;;;
2021/12/18 09:18:58;;;;;;;0.90;0.90;;;11.10;79.00;;;;;;5050199;28;20049;-88
2021/12/18 09:21:58;;;;;;;1.00;0.88;;;11.10;78.90;;;;;;5041071;28;20025;-89
2021/12/18 09:24:28;;;;;;;0.95;0.95;;;11.10;79.00;;;;;;5040188;28;20474;-87
2021/12/18 09:27:00;;;;;;;0.80;0.80;;;11.10;78.90;;;;;;5039620;28;20020;-87
2021/12/18 09:30:03;;;;;;;0.90;0.90;;;11.20;79.00;;;;;;5040938;28;20449;-92
2021/12/18 09:36:17;;;;;;;0.82;0.82;;;11.20;79.00;;;;;;5051504;28;20072;-95
2021/12/18 09:58:18;;;;;;;0.93;0.90;;;11.10;79.10;;;;;;4899747;28;20062;-88
2021/12/18 10:04:58;;;;;;;;;;;;;;;;;;;;;
2021/12/18 10:26:45;;;;;;;;;;;;;;;;;;;;;
2021/12/18 10:29:55;;;;;;;0.90;0.90;;;11.10;79.10;;;;;;5054317;28;20427;-89
2021/12/18 10:36:49;;;;;;;1.10;1.00;;;11.10;79.30;;;;;;5014606;28;20045;-89
2021/12/18 10:40:14;;;;;;;1.20;1.05;;;11.10;79.00;;;;;;5001548;28;20135;-88
2021/12/18 10:43:23;;;;;;;;;;;;;;;;;;;;;
2021/12/18 10:46:35;;;;;;;1.02;0.93;;;11.10;79.00;;;;;;4999700;28;20040;-89
2021/12/18 10:53:57;;;;;;;;;;;;;;;;;;;;;
2021/12/18 10:56:55;;;;;;;1.08;1.00;;;11.10;79.10;;;;;;4998623;28;20038;-89
2021/12/18 10:59:37;;;;;;;;;;;;;;;;;;;;;
2021/12/18 11:02:20;;;;;;;1.13;1.05;;;11.10;79.00;;;;;;5054662;28;20485;-89
2021/12/18 11:05:16;;;;;;;1.23;1.02;;;11.10;79.00;;;;;;5037490;28;20151;-90
2021/12/18 11:07:47;;;;;;;1.10;1.00;;;11.10;79.20;;;;;;5037560;28;20021;-89
2021/12/18 11:13:50;;;;;;;1.05;0.98;;;11.10;79.10;;;;;;5014134;28;20056;-87
2021/12/18 11:17:00;;;;;;;;;;;;;;;;;;;;;
2021/12/18 11:19:35;;;;;;;1.10;1.00;;;11.20;79.20;;;;;;5053959;28;20049;-85
2021/12/18 11:22:08;;;;;;;0.90;0.90;;;11.10;79.00;;;;;;5020852;28;20028;-87
2021/12/18 11:24:57;;;;;;;1.30;1.20;;;11.20;79.10;;;;;;5054100;28;20029;-92
2021/12/18 11:27:28;;;;;;;1.50;1.20;;;11.10;79.20;;;;;;5038115;28;20444;-92
2021/12/18 11:30:02;;;;;;;1.20;1.10;;;11.20;79.70;;;;;;5023525;28;20533;-88
2021/12/18 11:32:54;;;;;;;1.30;1.20;;;11.10;79.00;;;;;;5051231;28;20073;-87
2021/12/18 11:35:33;;;;;;;1.08;0.98;;;11.20;79.00;;;;;;5038190;28;20033;-88
2021/12/18 11:38:21;;;;;;;2.00;1.30;;;11.10;79.00;;;;;;5038240;28;20090;-88
2021/12/18 11:41:08;;;;;;;;;;;;;;;;;;;;;
2021/12/18 11:43:47;;;;;;;1.08;1.08;;;11.20;79.10;;;;;;5055085;28;20025;-88
2021/12/18 11:46:30;;;;;;;1.30;1.20;;;11.20;79.00;;;;;;5037830;28;20051;-87
2021/12/18 11:49:33;;;;;;;1.50;1.40;;;11.20;79.20;;;;;;5037018;28;20036;-88
2021/12/18 11:52:06;;;;;;;1.00;1.00;;;11.20;79.10;;;;;;5029101;28;20481;-88
2021/12/18 11:55:27;;;;;;;1.17;1.08;;;11.20;79.00;;;;;;5036859;28;20029;-87
2021/12/18 11:58:13;;;;;;;1.10;1.08;;;11.20;79.20;;;;;;5037104;28;20094;-88
2021/12/18 12:00:58;;;;;;;1.30;1.20;;;11.20;78.90;;;;;;5037298;28;20029;-86
2021/12/18 12:03:30;;;;;;;1.45;1.20;;;11.20;79.00;;;;;;5036900;28;20366;-88
2021/12/18 12:06:10;;;;;;;;;;;;;;;;;;;;;
2021/12/18 12:09:22;;;;;;;1.40;1.20;;;11.20;79.00;;;;;;5053591;28;20025;-88
2021/12/18 12:12:08;;;;;;;;;;;;;;;;;;;;;
2021/12/18 12:14:49;;;;;;;1.27;1.17;;;11.20;78.90;;;;;;5054403;28;20060;-87
2021/12/18 12:17:27;;;;;;;1.20;1.10;;;11.20;78.90;;;;;;5045684;28;20029;-87
2021/12/18 12:20:05;;;;;;;1.20;1.10;;;11.20;79.00;;;;;;5055413;28;20040;-88
2021/12/18 12:23:00;;;;;;;1.30;1.20;;;11.20;79.00;;;;;;5056050;28;20029;-88
2021/12/18 12:26:01;;;;;;;2.10;1.38;;;11.20;79.00;;;;;;5037699;28;20025;-87
2021/12/18 12:28:52;;;;;;;1.30;1.20;;;11.20;79.10;;;;;;5049763;28;20051;-87
2021/12/18 12:31:21;;;;;;;1.20;1.15;;;11.20;79.00;;;;;;5037257;28;20032;-87
2021/12/18 12:33:52;;;;;;;1.35;1.23;;;11.20;78.90;;;;;;5052889;28;20043;-87
2021/12/18 12:36:27;;;;;;;1.50;1.40;;;11.20;79.00;;;;;;5021029;28;20021;-87
2021/12/18 12:38:59;;;;;;;1.52;1.23;;;11.20;79.00;;;;;;5036589;28;20128;-87
2021/12/18 12:41:41;;;;;;;1.30;1.20;;;11.20;78.90;;;;;;5036868;28;20040;-87
2021/12/18 12:44:26;;;;;;;1.67;1.20;;;11.20;78.90;;;;;;5037512;28;20029;-86
2021/12/18 12:48:01;;;;;;;1.30;1.20;;;11.20;79.60;;;;;;5036640;28;20040;-87
2021/12/18 12:54:57;;;;;;;1.67;1.08;;;11.30;79.10;;;;;;4998973;28;20136;-87
2021/12/18 12:57:42;;;;;;;1.35;1.20;;;11.20;79.00;;;;;;5053856;28;20051;-88
2021/12/18 13:00:18;;;;;;;1.00;1.00;;;11.20;79.00;;;;;;5052752;28;20476;-88
2021/12/18 13:03:11;;;;;;;1.38;1.15;;;11.30;79.10;;;;;;5052449;28;20087;-87
2021/12/18 13:05:55;;;;;;;1.42;1.00;;;11.20;79.20;;;;;;5037175;28;20115;-86
2021/12/18 13:08:34;;;;;;;1.17;1.08;;;11.20;79.70;;;;;;5037241;28;20516;-87
2021/12/18 13:11:05;;;;;;;1.05;1.05;;;11.30;79.10;;;;;;5036220;28;20028;-87
2021/12/18 13:13:36;;;;;;;1.40;1.30;;;11.30;79.70;;;;;;5036926;28;20045;-85
2021/12/18 13:16:15;;;;;;;1.65;1.33;;;11.30;79.10;;;;;;5040010;28;20029;-87
2021/12/18 13:19:22;;;;;;;;;;;;;;;;;;;;;
2021/12/18 13:21:56;;;;;;;1.20;1.10;;;11.20;79.80;;;;;;5042311;28;20480;-87
2021/12/18 13:24:39;;;;;;;1.23;1.15;;;11.30;78.90;;;;;;5039791;28;20524;-88
2021/12/18 13:27:17;;;;;;;1.10;1.10;;;11.30;79.00;;;;;;5056110;28;20029;-88
2021/12/18 13:29:43;;;;;;;1.80;1.25;;;11.30;79.00;;;;;;5039421;28;20043;-88
2021/12/18 13:32:25;;;;;;;1.30;1.20;;;11.30;79.10;;;;;;5056658;28;20033;-87
2021/12/18 13:35:20;;;;;;;1.00;1.00;;;11.30;79.60;;;;;;5043413;28;20037;-87
2021/12/18 13:38:01;;;;;;;;;;;11.30;79.00;;;;;;5040419;28;20025;-87
2021/12/18 13:40:44;;;;;;;1.20;1.10;;;11.30;78.90;;;;;;5038936;28;20014;-88
2021/12/18 13:43:45;;;;;;;1.30;1.20;;;11.30;78.90;;;;;;5039785;28;20037;-88
2021/12/18 13:46:39;;;;;;;1.10;1.00;;;11.30;79.00;;;;;;5055754;28;20025;-88
2021/12/18 13:49:14;;;;;;;1.33;1.10;;;11.30;79.10;;;;;;5039573;28;20067;-88
2021/12/18 13:52:05;;;;;;;;;;;;;;;;;;;;;
2021/12/18 13:54:56;;;;;;;1.33;1.23;;;11.30;79.00;;;;;;5056345;28;20041;-88
2021/12/18 13:58:06;;;;;;;1.27;1.17;;;11.30;79.00;;;;;;5056686;28;20036;-88
2021/12/18 14:01:04;;;;;;;1.20;1.00;;;11.30;79.10;;;;;;5038938;28;20103;-88
2021/12/18 14:03:45;;;;;;;0.88;0.88;;;11.30;79.10;;;;;;5038768;28;20037;-87
2021/12/18 14:06:59;;;;;;;1.20;1.10;;;11.30;79.00;;;;;;5039184;28;20052;-88
2021/12/18 14:09:34;;;;;;;1.08;1.08;;;11.30;79.00;;;;;;5000896;28;20549;-88
2021/12/18 14:12:31;;;;;;;;;;;;;;;;;;;;;
2021/12/18 14:15:19;;;;;;;1.48;1.27;;;11.40;79.10;;;;;;5056567;28;20029;-88
2021/12/18 14:18:00;;;;;;;;;;;11.40;79.10;;;;;;5040669;28;20143;-88
2021/12/18 14:20:29;;;;;;;1.10;1.00;;;11.30;78.90;;;;;;5038804;28;20007;-88
2021/12/18 14:23:15;;;;;;;1.20;1.10;;;11.30;78.90;;;;;;5040998;28;20119;-87
2021/12/18 14:25:48;;;;;;;1.00;1.00;;;11.30;79.00;;;;;;5038878;28;20058;-87
2021/12/18 14:28:45;;;;;;;1.45;1.20;;;11.30;79.00;;;;;;5038915;28;20029;-88
2021/12/18 14:31:29;;;;;;;1.23;1.13;;;11.30;79.10;;;;;;5039114;28;20039;-88
2021/12/18 14:34:08;;;;;;;1.25;1.15;;;11.40;79.20;;;;;;5038154;28;20036;-87
2021/12/18 14:36:57;;;;;;;1.30;1.20;;;11.40;79.00;;;;;;5038084;28;20036;-87
2021/12/18 14:39:47;;;;;;;1.20;1.10;;;11.40;79.20;;;;;;5039325;28;20033;-87
2021/12/18 14:42:31;;;;;;;1.13;1.02;;;11.40;79.10;;;;;;5055101;28;20442;-89
2021/12/18 14:45:30;;;;;;;;;;;;;;;;;;;;;
2021/12/18 14:48:10;;;;;;;1.50;1.20;;;11.40;79.10;;;;;;5054381;28;20032;-88
2021/12/18 14:51:18;;;;;;;1.10;1.10;;;11.40;79.00;;;;;;5038009;28;20028;-88
2021/12/18 14:54:07;;;;;;;1.38;1.27;;;11.40;79.10;;;;;;5039572;28;20522;-88
2021/12/18 14:57:22;;;;;;;;;;;;;;;;;;;;;
2021/12/18 15:00:33;;;;;;;1.65;1.15;;;11.40;79.00;;;;;;5054763;28;20079;-87
2021/12/18 15:03:32;;;;;;;1.05;1.00;;;11.40;79.10;;;;;;5027484;28;20041;-87
2021/12/18 15:06:14;;;;;;;1.40;1.30;;;11.40;79.10;;;;;;5039324;28;20025;-88
2021/12/18 15:08:59;;;;;;;1.30;1.20;;;11.40;78.90;;;;;;5037586;28;20041;-87
2021/12/18 15:11:29;;;;;;;1.45;1.35;;;11.40;79.10;;;;;;5038384;28;20564;-87
2021/12/18 15:14:08;;;;;;;1.38;1.20;;;11.40;79.00;;;;;;5038282;28;20036;-87
2021/12/18 15:16:59;;;;;;;1.40;1.30;;;11.40;79.00;;;;;;5037735;28;20028;-86
2021/12/18 15:19:38;;;;;;;1.15;1.10;;;11.40;79.00;;;;;;5053862;28;20052;-87
2021/12/18 15:22:15;;;;;;;1.58;1.27;;;11.40;79.00;;;;;;5054415;28;20033;-87
2021/12/18 15:24:45;;;;;;;1.65;1.30;;;11.40;78.90;;;;;;5054586;28;20036;-87
2021/12/18 15:27:21;;;;;;;1.42;1.30;;;11.40;78.90;;;;;;5054631;28;20033;-87
2021/12/18 15:29:54;;;;;;;1.45;1.35;;;11.40;78.90;;;;;;5036980;28;20087;-87
2021/12/18 15:32:31;;;;;;;1.40;1.30;;;11.40;79.00;;;;;;5037761;28;20041;-87
2021/12/18 15:35:05;;;;;;;1.60;1.30;;;11.40;78.90;;;;;;5036957;28;20025;-87
2021/12/18 15:37:44;;;;;;;1.38;1.27;;;11.40;78.90;;;;;;5036287;28;20028;-87
2021/12/18 15:40:18;;;;;;;1.42;1.33;;;11.40;78.90;;;;;;5037897;28;20044;-87
2021/12/18 15:42:52;;;;;;;1.42;1.13;;;11.40;78.80;;;;;;5054039;28;20033;-87
2021/12/18 15:45:30;;;;;;;1.40;1.30;;;11.40;78.80;;;;;;5054709;28;20071;-86
2021/12/18 15:48:01;;;;;;;2.03;1.75;;;11.40;78.90;;;;;;5022027;28;20494;-88
2021/12/18 15:50:39;;;;;;;1.70;1.30;;;11.40;78.80;;;;;;5038291;28;20044;-86
2021/12/18 15:53:06;;;;;;;1.48;1.38;;;11.40;78.80;;;;;;5037278;28;20071;-86
2021/12/18 15:55:36;;;;;;;1.70;1.50;;;11.40;78.80;;;;;;5021223;28;20029;-86
2021/12/18 15:58:24;;;;;;;1.58;1.40;;;11.40;78.80;;;;;;5036905;28;20055;-86
2021/12/18 16:00:55;;;;;;;2.38;1.60;;;11.40;78.80;;;;;;5036182;28;20041;-89
2021/12/18 16:03:28;;;;;;;2.38;1.70;;;11.40;78.80;;;;;;5050581;28;20033;-87
2021/12/18 16:05:58;;;;;;;1.63;1.42;;;11.40;78.80;;;;;;5051411;28;20025;-87
2021/12/18 16:08:32;;;;;;;1.85;1.50;;;11.40;78.80;;;;;;5042735;28;20112;-86
2021/12/18 16:11:10;;;;;;;1.95;1.70;;;11.40;78.90;;;;;;5053367;28;20035;-87
2021/12/18 16:13:38;;;;;;;1.70;1.60;;;11.40;78.80;;;;;;5037159;28;20041;-86
2021/12/18 16:16:07;;;;;;;1.85;1.55;;;11.40;78.80;;;;;;5053266;28;20099;-87
2021/12/18 16:18:40;;;;;;;1.98;1.42;;;11.40;78.80;;;;;;5020178;28;20053;-84
2021/12/18 16:21:08;;;;;;;2.00;1.60;;;11.40;78.80;;;;;;5037399;28;20461;-87
2021/12/18 16:23:39;;;;;;;1.85;1.52;;;11.40;78.80;;;;;;5036884;28;20124;-87
2021/12/18 16:26:09;;;;;;;1.70;1.60;;;11.40;78.70;;;;;;5052070;28;20037;-86
2021/12/18 16:28:35;;;;;;;2.13;1.63;;;11.40;78.80;;;;;;5053802;28;20025;-86
2021/12/18 16:31:07;;;;;;;1.42;1.33;;;11.40;78.80;;;;;;5002828;28;20052;-86
2021/12/18 16:33:38;;;;;;;1.60;1.48;;;11.40;78.80;;;;;;5020235;28;20043;-86
2021/12/18 16:36:20;;;;;;;1.63;1.40;;;11.40;78.80;;;;;;5020164;28;20124;-86
2021/12/18 16:38:51;;;;;;;1.88;1.48;;;11.40;78.80;;;;;;5020827;28;20044;-86
2021/12/18 16:41:23;;;;;;;2.60;1.80;;;11.40;78.70;;;;;;5020439;28;20037;-86
2021/12/18 16:44:15;;;;;;;;;;;11.40;78.70;;;;;;5020150;28;20029;-87
2021/12/18 16:46:52;;;;;;;2.08;1.70;;;11.40;78.70;;;;;;5035675;28;19909;-87
2021/12/18 16:49:25;;;;;;;2.00;1.70;;;11.30;78.60;;;;;;5024675;28;20025;-86
2021/12/18 16:51:56;;;;;;;2.42;1.80;;;11.30;78.70;;;;;;5023927;28;20068;-87
2021/12/18 16:54:32;;;;;;;2.10;1.80;;;11.30;78.80;;;;;;5024366;28;20029;-86
2021/12/18 16:57:14;;;;;;;2.20;1.75;;;11.30;78.70;;;;;;5023865;28;20040;-87
2021/12/18 16:59:41;;;;;;;2.15;1.63;;;11.30;78.80;;;;;;5026112;28;20052;-87
2021/12/18 17:02:13;;;;;;;2.03;1.70;;;11.30;78.70;;;;;;5008087;28;20025;-86
2021/12/18 17:04:56;;;;;;;2.90;1.88;;;11.30;78.70;;;;;;5024685;28;20033;-87